sensor_id;sensor_type;location;lat;lon;timestamp;P1;durP1;ratioP1;P2;durP2;ratioP2
19183;SDS011;9724;51.194;6.856;2022-09-12T00:02:25;28.47;;;17.47;;
19183;SDS011;9724;51.194;6.856;2022-09-12T00:04:53;32.33;;;17.30;;
19183;SDS011;9724;51.194;6.856;2022-09-12T00:07:20;35.47;;;18.47;;
19183;SDS011;9724;51.194;6.856;2022-09-12T00:09:49;32.17;;;17.40;;
19183;SDS011;9724;51.194;6.856;2022-09-12T00:12:17;34.87;;;17.80;;
19183;SDS011;9724;51.194;6.856;2022-09-12T00:14:45;31.83;;;17.80;;
19183;SDS011;9724;51.194;6.856;2022-09-12T00:17:12;32.90;;;18.17;;
19183;SDS011;9724;51.194;6.856;2022-09-12T00:19:40;31.57;;;17.43;;
19183;SDS011;9724;51.194;6.856;2022-09-12T00:22:08;34.00;;;18.03;;
19183;SDS011;9724;51.194;6.856;2022-09-12T00:24:35;41.10;;;17.87;;
19183;SDS011;9724;51.194;6.856;2022-09-12T00:27:07;40.00;;;18.33;;
19183;SDS011;9724;51.194;6.856;2022-09-12T00:29:34;35.50;;;19.33;;
19183;SDS011;9724;51.194;6.856;2022-09-12T00:32:02;34.57;;;17.93;;
19183;SDS011;9724;51.194;6.856;2022-09-12T00:34:30;31.37;;;16.90;;
19183;SDS011;9724;51.194;6.856;2022-09-12T00:36:58;30.87;;;17.73;;
19183;SDS011;9724;51.194;6.856;2022-09-12T00:39:25;32.03;;;17.80;;
19183;SDS011;9724;51.194;6.856;2022-09-12T00:41:53;34.30;;;17.63;;
19183;SDS011;9724;51.194;6.856;2022-09-12T00:47:24;35.83;;;17.70;;
19183;SDS011;9724;51.194;6.856;2022-09-12T00:49:54;33.30;;;17.10;;
19183;SDS011;9724;51.194;6.856;2022-09-12T00:52:26;29.47;;;17.60;;
19183;SDS011;9724;51.194;6.856;2022-09-12T00:54:57;28.17;;;16.73;;
19183;SDS011;9724;51.194;6.856;2022-09-12T00:57:28;33.53;;;17.23;;
19183;SDS011;9724;51.194;6.856;2022-09-12T01:00:00;32.03;;;17.83;;
19183;SDS011;9724;51.194;6.856;2022-09-12T01:02:34;40.90;;;18.80;;
19183;SDS011;9724;51.194;6.856;2022-09-12T01:05:02;34.97;;;18.53;;
19183;SDS011;9724;51.194;6.856;2022-09-12T01:07:29;30.07;;;18.10;;
19183;SDS011;9724;51.194;6.856;2022-09-12T01:10:01;34.20;;;18.30;;
19183;SDS011;9724;51.194;6.856;2022-09-12T01:12:29;29.60;;;17.20;;
19183;SDS011;9724;51.194;6.856;2022-09-12T01:14:59;33.47;;;17.80;;
19183;SDS011;9724;51.194;6.856;2022-09-12T01:17:27;31.97;;;17.43;;
19183;SDS011;9724;51.194;6.856;2022-09-12T01:20:15;32.70;;;17.37;;
19183;SDS011;9724;51.194;6.856;2022-09-12T01:22:59;30.93;;;18.17;;
19183;SDS011;9724;51.194;6.856;2022-09-12T01:25:40;38.67;;;16.97;;
19183;SDS011;9724;51.194;6.856;2022-09-12T01:28:31;35.07;;;17.93;;
19183;SDS011;9724;51.194;6.856;2022-09-12T01:31:11;30.50;;;16.80;;
19183;SDS011;9724;51.194;6.856;2022-09-12T01:33:46;36.37;;;17.73;;
19183;SDS011;9724;51.194;6.856;2022-09-12T01:36:28;35.10;;;17.73;;
19183;SDS011;9724;51.194;6.856;2022-09-12T01:39:01;34.07;;;17.47;;
19183;SDS011;9724;51.194;6.856;2022-09-12T01:41:33;36.20;;;18.07;;
19183;SDS011;9724;51.194;6.856;2022-09-12T01:44:10;36.33;;;18.40;;
19183;SDS011;9724;51.194;6.856;2022-09-12T01:46:44;35.33;;;19.20;;
19183;SDS011;9724;51.194;6.856;2022-09-12T01:49:15;33.47;;;18.17;;
19183;SDS011;9724;51.194;6.856;2022-09-12T01:51:46;37.73;;;18.40;;
19183;SDS011;9724;51.194;6.856;2022-09-12T01:54:21;34.20;;;18.13;;
19183;SDS011;9724;51.194;6.856;2022-09-12T01:56:53;37.43;;;17.90;;
19183;SDS011;9724;51.194;6.856;2022-09-12T01:59:23;39.00;;;17.70;;
19183;SDS011;9724;51.194;6.856;2022-09-12T02:01:55;33.63;;;17.77;;
19183;SDS011;9724;51.194;6.856;2022-09-12T02:04:25;37.80;;;19.47;;
19183;SDS011;9724;51.194;6.856;2022-09-12T02:07:00;35.70;;;17.63;;
19183;SDS011;9724;51.194;6.856;2022-09-12T02:09:33;36.37;;;18.27;;
19183;SDS011;9724;51.194;6.856;2022-09-12T02:12:03;35.63;;;18.23;;
19183;SDS011;9724;51.194;6.856;2022-09-12T02:14:33;30.00;;;16.27;;
19183;SDS011;9724;51.194;6.856;2022-09-12T02:17:05;30.43;;;16.03;;
19183;SDS011;9724;51.194;6.856;2022-09-12T02:19:37;33.83;;;17.73;;
19183;SDS011;9724;51.194;6.856;2022-09-12T02:22:08;36.40;;;17.80;;
19183;SDS011;9724;51.194;6.856;2022-09-12T02:24:39;34.07;;;17.50;;
19183;SDS011;9724;51.194;6.856;2022-09-12T02:27:09;39.20;;;17.77;;
19183;SDS011;9724;51.194;6.856;2022-09-12T02:29:38;38.13;;;18.70;;
19183;SDS011;9724;51.194;6.856;2022-09-12T02:32:10;37.80;;;17.57;;
19183;SDS011;9724;51.194;6.856;2022-09-12T02:34:43;30.53;;;16.13;;
19183;SDS011;9724;51.194;6.856;2022-09-12T02:37:17;36.83;;;17.13;;
19183;SDS011;9724;51.194;6.856;2022-09-12T02:39:51;36.43;;;16.80;;
19183;SDS011;9724;51.194;6.856;2022-09-12T02:42:20;30.43;;;16.40;;
19183;SDS011;9724;51.194;6.856;2022-09-12T02:44:49;33.90;;;16.47;;
19183;SDS011;9724;51.194;6.856;2022-09-12T02:47:20;32.80;;;16.90;;
19183;SDS011;9724;51.194;6.856;2022-09-12T02:49:51;32.37;;;15.33;;
19183;SDS011;9724;51.194;6.856;2022-09-12T02:52:19;29.20;;;16.40;;
19183;SDS011;9724;51.194;6.856;2022-09-12T02:54:47;33.63;;;17.63;;
19183;SDS011;9724;51.194;6.856;2022-09-12T02:57:15;30.30;;;17.10;;
19183;SDS011;9724;51.194;6.856;2022-09-12T02:59:48;34.20;;;16.73;;
19183;SDS011;9724;51.194;6.856;2022-09-12T03:02:23;32.37;;;17.07;;
19183;SDS011;9724;51.194;6.856;2022-09-12T03:05:01;32.57;;;16.77;;
19183;SDS011;9724;51.194;6.856;2022-09-12T03:07:40;29.53;;;16.27;;
19183;SDS011;9724;51.194;6.856;2022-09-12T03:10:19;34.60;;;15.90;;
19183;SDS011;9724;51.194;6.856;2022-09-12T03:12:51;31.20;;;16.80;;
19183;SDS011;9724;51.194;6.856;2022-09-12T03:15:26;31.77;;;16.80;;
19183;SDS011;9724;51.194;6.856;2022-09-12T03:18:05;34.63;;;16.63;;
19183;SDS011;9724;51.194;6.856;2022-09-12T03:20:44;28.90;;;16.90;;
19183;SDS011;9724;51.194;6.856;2022-09-12T03:23:22;31.70;;;16.27;;
19183;SDS011;9724;51.194;6.856;2022-09-12T03:25:53;33.70;;;16.43;;
19183;SDS011;9724;51.194;6.856;2022-09-12T03:28:23;30.13;;;16.17;;
19183;SDS011;9724;51.194;6.856;2022-09-12T03:30:51;31.30;;;15.93;;
19183;SDS011;9724;51.194;6.856;2022-09-12T03:33:22;29.37;;;16.03;;
19183;SDS011;9724;51.194;6.856;2022-09-12T03:35:51;30.90;;;16.57;;
19183;SDS011;9724;51.194;6.856;2022-09-12T03:38:19;30.80;;;16.77;;
19183;SDS011;9724;51.194;6.856;2022-09-12T03:40:47;36.33;;;17.30;;
19183;SDS011;9724;51.194;6.856;2022-09-12T03:43:20;29.67;;;16.53;;
19183;SDS011;9724;51.194;6.856;2022-09-12T03:45:48;31.70;;;17.03;;
19183;SDS011;9724;51.194;6.856;2022-09-12T03:48:18;26.43;;;14.07;;
19183;SDS011;9724;51.194;6.856;2022-09-12T03:50:46;28.30;;;14.53;;
19183;SDS011;9724;51.194;6.856;2022-09-12T03:53:14;27.53;;;15.13;;
19183;SDS011;9724;51.194;6.856;2022-09-12T03:55:42;28.10;;;15.23;;
19183;SDS011;9724;51.194;6.856;2022-09-12T03:58:10;27.13;;;13.60;;
19183;SDS011;9724;51.194;6.856;2022-09-12T04:00:38;24.00;;;14.23;;
19183;SDS011;9724;51.194;6.856;2022-09-12T04:03:06;28.50;;;12.90;;
19183;SDS011;9724;51.194;6.856;2022-09-12T04:05:34;26.67;;;14.63;;
19183;SDS011;9724;51.194;6.856;2022-09-12T04:08:03;25.73;;;13.00;;
19183;SDS011;9724;51.194;6.856;2022-09-12T04:10:31;26.23;;;14.10;;
19183;SDS011;9724;51.194;6.856;2022-09-12T04:12:59;26.37;;;15.30;;
19183;SDS011;9724;51.194;6.856;2022-09-12T04:15:26;27.23;;;14.83;;
19183;SDS011;9724;51.194;6.856;2022-09-12T04:17:54;26.93;;;14.63;;
19183;SDS011;9724;51.194;6.856;2022-09-12T04:20:22;32.07;;;14.93;;
19183;SDS011;9724;51.194;6.856;2022-09-12T04:22:49;28.13;;;14.77;;
19183;SDS011;9724;51.194;6.856;2022-09-12T04:25:19;26.60;;;15.07;;
19183;SDS011;9724;51.194;6.856;2022-09-12T04:27:47;27.20;;;15.50;;
19183;SDS011;9724;51.194;6.856;2022-09-12T04:30:14;32.00;;;16.07;;
19183;SDS011;9724;51.194;6.856;2022-09-12T04:32:42;27.40;;;16.07;;
19183;SDS011;9724;51.194;6.856;2022-09-12T04:35:10;26.03;;;14.73;;
19183;SDS011;9724;51.194;6.856;2022-09-12T04:37:38;28.10;;;14.80;;
19183;SDS011;9724;51.194;6.856;2022-09-12T04:40:06;29.17;;;14.27;;
19183;SDS011;9724;51.194;6.856;2022-09-12T04:42:36;28.53;;;15.13;;
19183;SDS011;9724;51.194;6.856;2022-09-12T04:45:04;26.37;;;14.50;;
19183;SDS011;9724;51.194;6.856;2022-09-12T04:47:33;27.37;;;14.63;;
19183;SDS011;9724;51.194;6.856;2022-09-12T04:50:01;24.87;;;14.60;;
19183;SDS011;9724;51.194;6.856;2022-09-12T04:52:30;27.80;;;14.53;;
19183;SDS011;9724;51.194;6.856;2022-09-12T04:54:58;27.53;;;14.50;;
19183;SDS011;9724;51.194;6.856;2022-09-12T04:57:25;27.03;;;13.80;;
19183;SDS011;9724;51.194;6.856;2022-09-12T04:59:54;30.47;;;14.20;;
19183;SDS011;9724;51.194;6.856;2022-09-12T05:02:22;25.93;;;14.27;;
19183;SDS011;9724;51.194;6.856;2022-09-12T05:04:50;28.17;;;14.90;;
19183;SDS011;9724;51.194;6.856;2022-09-12T05:07:25;29.97;;;14.90;;
19183;SDS011;9724;51.194;6.856;2022-09-12T05:09:52;22.60;;;13.67;;
19183;SDS011;9724;51.194;6.856;2022-09-12T05:12:20;25.67;;;14.67;;
19183;SDS011;9724;51.194;6.856;2022-09-12T05:14:48;26.27;;;14.10;;
19183;SDS011;9724;51.194;6.856;2022-09-12T05:17:18;25.33;;;13.77;;
19183;SDS011;9724;51.194;6.856;2022-09-12T05:19:46;25.20;;;13.23;;
19183;SDS011;9724;51.194;6.856;2022-09-12T05:22:14;22.43;;;13.40;;
19183;SDS011;9724;51.194;6.856;2022-09-12T05:24:41;20.40;;;13.07;;
19183;SDS011;9724;51.194;6.856;2022-09-12T05:27:19;25.03;;;13.53;;
19183;SDS011;9724;51.194;6.856;2022-09-12T05:29:47;24.97;;;13.27;;
19183;SDS011;9724;51.194;6.856;2022-09-12T05:32:14;24.90;;;14.57;;
19183;SDS011;9724;51.194;6.856;2022-09-12T05:34:43;24.60;;;13.27;;
19183;SDS011;9724;51.194;6.856;2022-09-12T05:37:11;24.70;;;14.53;;
19183;SDS011;9724;51.194;6.856;2022-09-12T05:39:40;22.40;;;13.63;;
19183;SDS011;9724;51.194;6.856;2022-09-12T05:42:08;23.70;;;13.17;;
19183;SDS011;9724;51.194;6.856;2022-09-12T05:44:36;21.90;;;12.50;;
19183;SDS011;9724;51.194;6.856;2022-09-12T05:47:04;23.73;;;12.33;;
19183;SDS011;9724;51.194;6.856;2022-09-12T05:49:31;20.43;;;12.30;;
19183;SDS011;9724;51.194;6.856;2022-09-12T05:52:02;19.87;;;12.23;;
19183;SDS011;9724;51.194;6.856;2022-09-12T05:54:30;20.90;;;12.93;;
19183;SDS011;9724;51.194;6.856;2022-09-12T05:56:59;17.23;;;11.70;;
19183;SDS011;9724;51.194;6.856;2022-09-12T05:59:27;17.60;;;11.60;;
19183;SDS011;9724;51.194;6.856;2022-09-12T06:01:54;20.50;;;11.73;;
19183;SDS011;9724;51.194;6.856;2022-09-12T06:04:22;18.20;;;11.33;;
19183;SDS011;9724;51.194;6.856;2022-09-12T06:06:50;18.53;;;11.03;;
19183;SDS011;9724;51.194;6.856;2022-09-12T06:09:19;16.97;;;11.37;;
19183;SDS011;9724;51.194;6.856;2022-09-12T06:11:47;19.37;;;10.73;;
19183;SDS011;9724;51.194;6.856;2022-09-12T06:14:17;17.63;;;11.00;;
19183;SDS011;9724;51.194;6.856;2022-09-12T06:16:45;21.93;;;11.40;;
19183;SDS011;9724;51.194;6.856;2022-09-12T06:19:14;17.60;;;10.67;;
19183;SDS011;9724;51.194;6.856;2022-09-12T06:21:42;16.23;;;11.30;;
19183;SDS011;9724;51.194;6.856;2022-09-12T06:24:10;18.83;;;10.37;;
19183;SDS011;9724;51.194;6.856;2022-09-12T06:26:39;21.57;;;10.70;;
19183;SDS011;9724;51.194;6.856;2022-09-12T06:29:08;16.77;;;10.60;;
19183;SDS011;9724;51.194;6.856;2022-09-12T06:31:37;17.60;;;10.77;;
19183;SDS011;9724;51.194;6.856;2022-09-12T06:34:07;19.33;;;11.10;;
19183;SDS011;9724;51.194;6.856;2022-09-12T06:36:37;18.43;;;10.10;;
19183;SDS011;9724;51.194;6.856;2022-09-12T06:39:08;13.67;;;10.03;;
19183;SDS011;9724;51.194;6.856;2022-09-12T06:41:37;18.57;;;10.80;;
19183;SDS011;9724;51.194;6.856;2022-09-12T06:44:11;19.10;;;10.70;;
19183;SDS011;9724;51.194;6.856;2022-09-12T06:46:41;15.43;;;10.37;;
19183;SDS011;9724;51.194;6.856;2022-09-12T06:49:09;15.37;;;9.73;;
19183;SDS011;9724;51.194;6.856;2022-09-12T06:51:37;15.37;;;10.50;;
19183;SDS011;9724;51.194;6.856;2022-09-12T06:54:06;16.87;;;10.23;;
19183;SDS011;9724;51.194;6.856;2022-09-12T06:56:35;16.13;;;10.10;;
19183;SDS011;9724;51.194;6.856;2022-09-12T06:59:03;16.10;;;10.07;;
19183;SDS011;9724;51.194;6.856;2022-09-12T07:01:33;14.07;;;10.20;;
19183;SDS011;9724;51.194;6.856;2022-09-12T07:04:01;15.80;;;9.53;;
19183;SDS011;9724;51.194;6.856;2022-09-12T07:06:34;14.60;;;9.40;;
19183;SDS011;9724;51.194;6.856;2022-09-12T07:09:04;14.30;;;9.83;;
19183;SDS011;9724;51.194;6.856;2022-09-12T07:11:33;15.90;;;8.80;;
19183;SDS011;9724;51.194;6.856;2022-09-12T07:14:03;14.27;;;9.27;;
19183;SDS011;9724;51.194;6.856;2022-09-12T07:16:34;14.33;;;9.40;;
19183;SDS011;9724;51.194;6.856;2022-09-12T07:19:03;12.57;;;9.70;;
19183;SDS011;9724;51.194;6.856;2022-09-12T07:21:32;12.83;;;9.73;;
19183;SDS011;9724;51.194;6.856;2022-09-12T07:24:05;14.00;;;10.00;;
19183;SDS011;9724;51.194;6.856;2022-09-12T07:26:34;15.30;;;9.80;;
19183;SDS011;9724;51.194;6.856;2022-09-12T07:29:02;15.10;;;9.33;;
19183;SDS011;9724;51.194;6.856;2022-09-12T07:31:51;14.60;;;9.33;;
19183;SDS011;9724;51.194;6.856;2022-09-12T07:34:19;18.67;;;9.97;;
19183;SDS011;9724;51.194;6.856;2022-09-12T07:36:48;15.83;;;9.93;;
19183;SDS011;9724;51.194;6.856;2022-09-12T07:39:15;19.53;;;10.63;;
19183;SDS011;9724;51.194;6.856;2022-09-12T07:41:43;15.63;;;10.43;;
19183;SDS011;9724;51.194;6.856;2022-09-12T07:44:11;15.07;;;10.20;;
19183;SDS011;9724;51.194;6.856;2022-09-12T07:46:39;14.87;;;10.47;;
19183;SDS011;9724;51.194;6.856;2022-09-12T07:49:10;15.60;;;10.43;;
19183;SDS011;9724;51.194;6.856;2022-09-12T07:51:38;17.90;;;10.67;;
19183;SDS011;9724;51.194;6.856;2022-09-12T07:54:06;18.83;;;9.87;;
19183;SDS011;9724;51.194;6.856;2022-09-12T07:56:34;16.53;;;10.43;;
19183;SDS011;9724;51.194;6.856;2022-09-12T07:59:04;19.00;;;10.23;;
19183;SDS011;9724;51.194;6.856;2022-09-12T08:01:32;22.23;;;10.87;;
19183;SDS011;9724;51.194;6.856;2022-09-12T08:04:00;18.20;;;10.30;;
19183;SDS011;9724;51.194;6.856;2022-09-12T08:06:29;17.33;;;10.33;;
19183;SDS011;9724;51.194;6.856;2022-09-12T08:08:59;18.27;;;10.70;;
19183;SDS011;9724;51.194;6.856;2022-09-12T08:11:28;16.07;;;11.20;;
19183;SDS011;9724;51.194;6.856;2022-09-12T08:13:56;17.40;;;11.30;;
19183;SDS011;9724;51.194;6.856;2022-09-12T08:16:25;13.73;;;9.57;;
19183;SDS011;9724;51.194;6.856;2022-09-12T08:18:54;17.00;;;10.17;;
19183;SDS011;9724;51.194;6.856;2022-09-12T08:21:23;19.50;;;10.60;;
19183;SDS011;9724;51.194;6.856;2022-09-12T08:23:53;14.87;;;9.63;;
19183;SDS011;9724;51.194;6.856;2022-09-12T08:26:22;16.40;;;10.17;;
19183;SDS011;9724;51.194;6.856;2022-09-12T08:28:50;16.63;;;10.23;;
19183;SDS011;9724;51.194;6.856;2022-09-12T08:31:19;17.43;;;9.97;;
19183;SDS011;9724;51.194;6.856;2022-09-12T08:33:47;16.10;;;9.93;;
19183;SDS011;9724;51.194;6.856;2022-09-12T08:36:16;14.90;;;10.43;;
19183;SDS011;9724;51.194;6.856;2022-09-12T08:38:45;13.00;;;9.53;;
19183;SDS011;9724;51.194;6.856;2022-09-12T08:41:20;16.73;;;10.43;;
19183;SDS011;9724;51.194;6.856;2022-09-12T08:43:58;15.77;;;10.00;;
19183;SDS011;9724;51.194;6.856;2022-09-12T08:46:44;16.63;;;9.87;;
19183;SDS011;9724;51.194;6.856;2022-09-12T08:49:20;14.53;;;9.37;;
19183;SDS011;9724;51.194;6.856;2022-09-12T08:51:52;19.23;;;9.83;;
19183;SDS011;9724;51.194;6.856;2022-09-12T08:54:22;19.57;;;9.43;;
19183;SDS011;9724;51.194;6.856;2022-09-12T08:56:54;12.83;;;8.90;;
19183;SDS011;9724;51.194;6.856;2022-09-12T08:59:26;13.27;;;8.40;;
19183;SDS011;9724;51.194;6.856;2022-09-12T09:01:55;13.23;;;8.83;;
19183;SDS011;9724;51.194;6.856;2022-09-12T09:04:27;16.53;;;8.90;;
19183;SDS011;9724;51.194;6.856;2022-09-12T09:09:50;17.93;;;7.93;;
19183;SDS011;9724;51.194;6.856;2022-09-12T09:12:36;11.73;;;7.20;;
19183;SDS011;9724;51.194;6.856;2022-09-12T09:15:12;12.00;;;7.83;;
19183;SDS011;9724;51.194;6.856;2022-09-12T09:17:50;11.33;;;7.43;;
19183;SDS011;9724;51.194;6.856;2022-09-12T09:20:21;10.37;;;7.60;;
19183;SDS011;9724;51.194;6.856;2022-09-12T09:22:56;9.70;;;7.30;;
19183;SDS011;9724;51.194;6.856;2022-09-12T09:25:33;11.77;;;7.03;;
19183;SDS011;9724;51.194;6.856;2022-09-12T09:28:10;10.00;;;6.50;;
19183;SDS011;9724;51.194;6.856;2022-09-12T09:30:39;9.50;;;7.20;;
19183;SDS011;9724;51.194;6.856;2022-09-12T09:33:11;12.47;;;6.83;;
19183;SDS011;9724;51.194;6.856;2022-09-12T09:35:43;9.00;;;6.57;;
19183;SDS011;9724;51.194;6.856;2022-09-12T09:38:16;12.63;;;6.33;;
19183;SDS011;9724;51.194;6.856;2022-09-12T09:40:51;8.77;;;6.20;;
19183;SDS011;9724;51.194;6.856;2022-09-12T09:43:27;6.83;;;6.00;;
19183;SDS011;9724;51.194;6.856;2022-09-12T09:45:55;11.03;;;6.33;;
19183;SDS011;9724;51.194;6.856;2022-09-12T09:48:24;12.50;;;6.53;;
19183;SDS011;9724;51.194;6.856;2022-09-12T09:50:55;7.63;;;6.37;;
19183;SDS011;9724;51.194;6.856;2022-09-12T09:53:30;8.83;;;5.90;;
19183;SDS011;9724;51.194;6.856;2022-09-12T09:56:02;9.93;;;6.13;;
19183;SDS011;9724;51.194;6.856;2022-09-12T09:58:34;8.47;;;5.40;;
19183;SDS011;9724;51.194;6.856;2022-09-12T10:01:03;8.07;;;5.23;;
19183;SDS011;9724;51.194;6.856;2022-09-12T10:03:32;8.90;;;5.53;;
19183;SDS011;9724;51.194;6.856;2022-09-12T10:06:01;7.13;;;5.40;;
19183;SDS011;9724;51.194;6.856;2022-09-12T10:08:33;5.37;;;4.87;;
19183;SDS011;9724;51.194;6.856;2022-09-12T10:11:03;8.27;;;5.30;;
19183;SDS011;9724;51.194;6.856;2022-09-12T10:13:34;7.67;;;4.40;;
19183;SDS011;9724;51.194;6.856;2022-09-12T10:16:05;8.63;;;4.77;;
19183;SDS011;9724;51.194;6.856;2022-09-12T10:18:43;9.43;;;5.07;;
19183;SDS011;9724;51.194;6.856;2022-09-12T10:21:15;5.77;;;4.90;;
19183;SDS011;9724;51.194;6.856;2022-09-12T10:23:50;7.40;;;4.50;;
19183;SDS011;9724;51.194;6.856;2022-09-12T10:26:19;7.03;;;4.37;;
19183;SDS011;9724;51.194;6.856;2022-09-12T10:28:49;5.03;;;3.93;;
19183;SDS011;9724;51.194;6.856;2022-09-12T10:31:23;6.00;;;3.80;;
19183;SDS011;9724;51.194;6.856;2022-09-12T10:33:54;8.80;;;3.90;;
19183;SDS011;9724;51.194;6.856;2022-09-12T10:36:24;7.50;;;3.30;;
19183;SDS011;9724;51.194;6.856;2022-09-12T10:38:52;6.20;;;3.70;;
19183;SDS011;9724;51.194;6.856;2022-09-12T10:41:21;6.13;;;3.00;;
19183;SDS011;9724;51.194;6.856;2022-09-12T10:43:51;3.97;;;3.17;;
19183;SDS011;9724;51.194;6.856;2022-09-12T10:46:20;3.87;;;3.20;;
19183;SDS011;9724;51.194;6.856;2022-09-12T10:51:49;5.07;;;3.20;;
19183;SDS011;9724;51.194;6.856;2022-09-12T10:54:18;5.67;;;3.53;;
19183;SDS011;9724;51.194;6.856;2022-09-12T10:56:51;4.00;;;3.13;;
19183;SDS011;9724;51.194;6.856;2022-09-12T10:59:31;6.03;;;3.40;;
19183;SDS011;9724;51.194;6.856;2022-09-12T11:02:11;3.10;;;2.80;;
19183;SDS011;9724;51.194;6.856;2022-09-12T11:04:45;2.50;;;2.30;;
19183;SDS011;9724;51.194;6.856;2022-09-12T11:07:22;3.97;;;2.70;;
19183;SDS011;9724;51.194;6.856;2022-09-12T11:09:59;3.73;;;2.83;;
19183;SDS011;9724;51.194;6.856;2022-09-12T11:12:32;3.67;;;2.90;;
19183;SDS011;9724;51.194;6.856;2022-09-12T11:15:10;3.03;;;2.57;;
19183;SDS011;9724;51.194;6.856;2022-09-12T11:17:45;2.70;;;2.50;;
19183;SDS011;9724;51.194;6.856;2022-09-12T11:23:16;2.40;;;2.20;;
19183;SDS011;9724;51.194;6.856;2022-09-12T11:25:54;4.27;;;2.43;;
19183;SDS011;9724;51.194;6.856;2022-09-12T11:28:26;2.13;;;2.03;;
19183;SDS011;9724;51.194;6.856;2022-09-12T11:31:03;2.70;;;2.50;;
19183;SDS011;9724;51.194;6.856;2022-09-12T11:33:41;6.27;;;2.17;;
19183;SDS011;9724;51.194;6.856;2022-09-12T11:36:13;2.40;;;2.30;;
19183;SDS011;9724;51.194;6.856;2022-09-12T11:38:49;2.97;;;2.70;;
19183;SDS011;9724;51.194;6.856;2022-09-12T11:41:20;2.83;;;2.63;;
19183;SDS011;9724;51.194;6.856;2022-09-12T11:43:53;2.93;;;2.73;;
19183;SDS011;9724;51.194;6.856;2022-09-12T11:46:26;4.37;;;2.83;;
19183;SDS011;9724;51.194;6.856;2022-09-12T11:48:58;8.60;;;2.70;;
19183;SDS011;9724;51.194;6.856;2022-09-12T11:51:32;6.47;;;2.70;;
19183;SDS011;9724;51.194;6.856;2022-09-12T11:54:03;3.13;;;2.93;;
19183;SDS011;9724;51.194;6.856;2022-09-12T11:56:37;3.33;;;3.03;;
19183;SDS011;9724;51.194;6.856;2022-09-12T11:59:09;2.80;;;2.50;;
19183;SDS011;9724;51.194;6.856;2022-09-12T12:01:41;2.93;;;2.17;;
19183;SDS011;9724;51.194;6.856;2022-09-12T12:04:14;2.40;;;2.17;;
19183;SDS011;9724;51.194;6.856;2022-09-12T12:06:48;6.67;;;2.83;;
19183;SDS011;9724;51.194;6.856;2022-09-12T12:09:17;2.67;;;2.47;;
19183;SDS011;9724;51.194;6.856;2022-09-12T12:11:46;4.43;;;3.07;;
19183;SDS011;9724;51.194;6.856;2022-09-12T12:14:16;3.13;;;2.57;;
19183;SDS011;9724;51.194;6.856;2022-09-12T12:16:47;3.20;;;2.90;;
19183;SDS011;9724;51.194;6.856;2022-09-12T12:22:05;3.13;;;2.53;;
19183;SDS011;9724;51.194;6.856;2022-09-12T12:24:37;2.90;;;2.70;;
19183;SDS011;9724;51.194;6.856;2022-09-12T12:27:24;5.57;;;2.50;;
19183;SDS011;9724;51.194;6.856;2022-09-12T12:51:36;4.43;;;2.33;;
19183;SDS011;9724;51.194;6.856;2022-09-12T12:57:29;2.83;;;2.20;;
19183;SDS011;9724;51.194;6.856;2022-09-12T13:03:00;3.80;;;2.47;;
19183;SDS011;9724;51.194;6.856;2022-09-12T13:05:38;3.07;;;2.20;;
19183;SDS011;9724;51.194;6.856;2022-09-12T13:08:07;2.60;;;2.50;;
19183;SDS011;9724;51.194;6.856;2022-09-12T13:10:36;2.47;;;2.30;;
19183;SDS011;9724;51.194;6.856;2022-09-12T13:13:05;2.70;;;2.60;;
19183;SDS011;9724;51.194;6.856;2022-09-12T13:15:45;2.53;;;2.43;;
19183;SDS011;9724;51.194;6.856;2022-09-12T13:18:16;5.57;;;2.17;;
19183;SDS011;9724;51.194;6.856;2022-09-12T13:20:50;3.43;;;2.33;;
19183;SDS011;9724;51.194;6.856;2022-09-12T13:23:20;2.70;;;2.50;;
19183;SDS011;9724;51.194;6.856;2022-09-12T13:25:53;2.20;;;2.10;;
19183;SDS011;9724;51.194;6.856;2022-09-12T13:28:21;5.73;;;2.23;;
19183;SDS011;9724;51.194;6.856;2022-09-12T13:30:55;2.13;;;1.80;;
19183;SDS011;9724;51.194;6.856;2022-09-12T13:33:31;2.00;;;1.90;;
19183;SDS011;9724;51.194;6.856;2022-09-12T13:39:12;2.10;;;2.00;;
19183;SDS011;9724;51.194;6.856;2022-09-12T13:41:54;5.27;;;2.00;;
19183;SDS011;9724;51.194;6.856;2022-09-12T13:44:43;3.53;;;2.23;;
19183;SDS011;9724;51.194;6.856;2022-09-12T13:47:13;2.30;;;2.20;;
19183;SDS011;9724;51.194;6.856;2022-09-12T13:49:41;2.47;;;2.07;;
19183;SDS011;9724;51.194;6.856;2022-09-12T13:52:14;2.73;;;2.00;;
19183;SDS011;9724;51.194;6.856;2022-09-12T13:54:44;2.10;;;2.00;;
19183;SDS011;9724;51.194;6.856;2022-09-12T13:57:27;3.40;;;1.87;;
19183;SDS011;9724;51.194;6.856;2022-09-12T13:59:56;3.80;;;1.90;;
19183;SDS011;9724;51.194;6.856;2022-09-12T14:02:26;2.43;;;2.23;;
19183;SDS011;9724;51.194;6.856;2022-09-12T14:04:56;2.53;;;2.33;;
19183;SDS011;9724;51.194;6.856;2022-09-12T14:07:38;3.73;;;2.00;;
19183;SDS011;9724;51.194;6.856;2022-09-12T14:10:12;2.23;;;2.13;;
19183;SDS011;9724;51.194;6.856;2022-09-12T14:12:43;3.00;;;2.20;;
19183;SDS011;9724;51.194;6.856;2022-09-12T14:15:16;2.30;;;2.20;;
19183;SDS011;9724;51.194;6.856;2022-09-12T14:17:47;5.53;;;2.40;;
19183;SDS011;9724;51.194;6.856;2022-09-12T14:20:18;6.37;;;2.47;;
19183;SDS011;9724;51.194;6.856;2022-09-12T14:22:50;2.83;;;2.40;;
19183;SDS011;9724;51.194;6.856;2022-09-12T14:25:19;3.87;;;2.50;;
19183;SDS011;9724;51.194;6.856;2022-09-12T14:27:49;2.80;;;2.60;;
19183;SDS011;9724;51.194;6.856;2022-09-12T14:30:20;2.30;;;2.20;;
19183;SDS011;9724;51.194;6.856;2022-09-12T14:33:03;2.30;;;2.20;;
19183;SDS011;9724;51.194;6.856;2022-09-12T14:35:32;3.17;;;2.27;;
19183;SDS011;9724;51.194;6.856;2022-09-12T14:38:06;2.13;;;2.00;;
19183;SDS011;9724;51.194;6.856;2022-09-12T14:40:39;2.20;;;2.10;;
19183;SDS011;9724;51.194;6.856;2022-09-12T14:43:15;2.87;;;2.67;;
19183;SDS011;9724;51.194;6.856;2022-09-12T14:45:51;2.70;;;2.33;;
19183;SDS011;9724;51.194;6.856;2022-09-12T14:48:20;8.30;;;2.50;;
19183;SDS011;9724;51.194;6.856;2022-09-12T14:50:48;2.57;;;2.37;;
19183;SDS011;9724;51.194;6.856;2022-09-12T14:53:25;3.23;;;2.70;;
19183;SDS011;9724;51.194;6.856;2022-09-12T14:56:03;5.23;;;2.80;;
19183;SDS011;9724;51.194;6.856;2022-09-12T14:58:34;5.20;;;2.57;;
19183;SDS011;9724;51.194;6.856;2022-09-12T15:01:02;3.10;;;2.80;;
19183;SDS011;9724;51.194;6.856;2022-09-12T15:03:49;4.10;;;2.50;;
19183;SDS011;9724;51.194;6.856;2022-09-12T15:06:21;2.83;;;2.50;;
19183;SDS011;9724;51.194;6.856;2022-09-12T15:08:53;6.33;;;2.73;;
19183;SDS011;9724;51.194;6.856;2022-09-12T15:11:21;3.23;;;2.73;;
19183;SDS011;9724;51.194;6.856;2022-09-12T15:13:49;2.97;;;2.77;;
19183;SDS011;9724;51.194;6.856;2022-09-12T15:16:18;2.80;;;2.70;;
19183;SDS011;9724;51.194;6.856;2022-09-12T15:18:45;2.87;;;2.73;;
19183;SDS011;9724;51.194;6.856;2022-09-12T15:21:15;3.00;;;2.80;;
19183;SDS011;9724;51.194;6.856;2022-09-12T15:23:44;2.53;;;2.33;;
19183;SDS011;9724;51.194;6.856;2022-09-12T15:26:15;3.23;;;2.50;;
19183;SDS011;9724;51.194;6.856;2022-09-12T15:28:44;4.00;;;2.50;;
19183;SDS011;9724;51.194;6.856;2022-09-12T15:31:14;2.93;;;2.60;;
19183;SDS011;9724;51.194;6.856;2022-09-12T15:33:47;3.37;;;2.73;;
19183;SDS011;9724;51.194;6.856;2022-09-12T15:36:16;9.30;;;2.83;;
19183;SDS011;9724;51.194;6.856;2022-09-12T15:38:44;5.17;;;2.87;;
19183;SDS011;9724;51.194;6.856;2022-09-12T15:41:15;5.63;;;2.60;;
19183;SDS011;9724;51.194;6.856;2022-09-12T15:43:44;3.80;;;2.47;;
19183;SDS011;9724;51.194;6.856;2022-09-12T15:46:13;3.70;;;2.80;;
19183;SDS011;9724;51.194;6.856;2022-09-12T15:48:42;3.97;;;2.93;;
19183;SDS011;9724;51.194;6.856;2022-09-12T15:51:10;7.07;;;2.70;;
19183;SDS011;9724;51.194;6.856;2022-09-12T15:53:41;2.93;;;2.70;;
19183;SDS011;9724;51.194;6.856;2022-09-12T15:56:08;3.00;;;2.80;;